Cumberland Foreside, ME

12:57 AM EST on January 27, 2015 (GMT -0500)
Auburn-Lewiston Municipal | Change Station
CLOSE
Current Station
Airport
Location: Auburn-Lewiston,
Elevation: 289 ft
Nearby Weather Stations

Elev 289 ft 44.05 °N, 70.28 °W | Updated 22 minutes ago

Overcast
Overcast
12 °F
Feels Like -6 °F
N
21
Wind Variable Wind from NNE
Gusts 31 mph

Today
High -- | Low -- °F
--% Chance of Precip.
Yesterday
High -- | Low -- °F
Precip. -- in
7:02 AM 4:44 PM
Waxing Crescent, 50% visible
Pressure 30.00 in
Visibility 10.0 miles
Clouds Overcast 7000 ft
Windchill -6 °F
Dew Point -6 °F
Humidity 45%
Rainfall 0.00 in
Snow Depth Not available.
UV 0 out of 12
Pollen .10 out of 12
Air Quality Not available.
Flu Activity Not available.
METAR KLEW 270535Z AUTO 03018G27KT 10SM OVC070 M11/M21 A3000 RMK AO1

More Conditions Fewer Conditions

Pressure 30.00 in
Visibility 10.0 miles
Clouds Overcast 7000 ft
Windchill -6 °F
Dew Point -6 °F
Humidity 45%
Rainfall 0.00 in
Snow Depth Not available.
UV 0 out of 12
Pollen .10 out of 12
Air Quality Not available.
Flu Activity Not available.
METAR KLEW 270535Z AUTO 03018G27KT 10SM OVC070 M11/M21 A3000 RMK AO1

More Conditions Fewer Conditions

10-Day Weather Forecast

Almanac

Astronomy

Jan. 27, 2015 Rise Set
Actual Time
Civil Twilight
Nautical Twilight
Astronomical Twilight
Moon
Length of Visible Light
Length of Day
Tomorrow will be .
, % of the Moon is Illuminated

Today's Extremes

State Highs State Lows

Community

WunderPhotos

Upload Photos

1,790,536 photos uploaded!

WunderBlogs® & News

Nearby

Air Quality

  Air Quality AQ Index Pollutant
Not available.

Snow Depth

Station Depth Elevation

Earthquake Activity

City Distance Mag. Time & Date
Minimum magnitude displayed is 2.5.

Coastal Water Temperatures

Place Temperature

Nearby Weather Stations